M I D A S
Marine Information and Data Acquisition System
Tripno 428 of the Zeeleeuw from 2003-02-11 07:32:15 to 2003-02-11 15:22:51
Back to CruiseResearch ActivitiesStationsMapUnderway DataData graphs

EquipmentUnitsComment
TimeDGPSUTC
LatitudeDGPSDM.mWGS84
LongitudeDGPSDM.mWGS84
HeadingGyrodeg 
SOGDGPSknotsSpeed over ground
COGDGPSdegCourse over ground
DepthEcho soundermeters200 kHz
Missing or incorrect values are displayed as -999
Navigation data collected by the RV Zeeleeuw from 2003-02-11 07:32:15 to 2003-02-11 15:22:51
                                                                                    Next 1000 lines
Time Latitude Longitude Heading SOG COG Depth
2003-02-11 07:32:25 51°13.605 2°56.077 116.9 2.4 295.7 -999
2003-02-11 07:32:29 51°13.607 2°56.072 116.9 2.7 295.7 -999
2003-02-11 07:32:34 51°13.609 2°56.065 116.9 3.1 295.2 -999
2003-02-11 07:32:39 51°13.611 2°56.058 116.8 3.4 295.4 -999
2003-02-11 07:32:44 51°13.613 2°56.051 116.9 3.7 295.1 -999
2003-02-11 07:32:49 51°13.616 2°56.043 117.1 3.9 295.2 -999
2003-02-11 07:32:55 51°13.619 2°56.032 117.3 4.1 295.3 -999
2003-02-11 07:32:59 51°13.621 2°56.025 117.3 4.3 295.2 -999
2003-02-11 07:33:05 51°13.624 2°56.014 117.1 4.5 294.9 -999
2003-02-11 07:33:09 51°13.626 2°56.007 117.2 4.6 294.6 -999
2003-02-11 07:33:15 51°13.629 2°55.995 117.8 4.7 294.6 -999
2003-02-11 07:33:19 51°13.631 2°55.988 118.9 4.8 295.3 -999
2003-02-11 07:33:25 51°13.635 2°55.976 119.6 4.8 296.3 -999
2003-02-11 07:33:29 51°13.637 2°55.968 119.9 4.9 296.9 -999
2003-02-11 07:33:35 51°13.641 2°55.956 120.2 5 297 -999
2003-02-11 07:33:39 51°13.644 2°55.948 120.4 5.1 296.9 -999
2003-02-11 07:33:44 51°13.647 2°55.937 120.4 5.1 296.9 -999
2003-02-11 07:33:49 51°13.65 2°55.927 120.4 5.2 296.7 -999
2003-02-11 07:33:54 51°13.654 2°55.916 120.5 5.3 297.1 -999
2003-02-11 07:33:59 51°13.657 2°55.906 120.5 5.3 297.3 -999
2003-02-11 07:34:05 51°13.661 2°55.893 120.4 5.3 297.4 -999
2003-02-11 07:34:09 51°13.664 2°55.885 120.3 5.2 297.5 -999
2003-02-11 07:34:14 51°13.667 2°55.875 119.9 5.3 297.5 -999
2003-02-11 07:34:19 51°13.67 2°55.864 119.4 5.3 297.5 -999
2003-02-11 07:34:25 51°13.674 2°55.852 118.8 5.3 297.3 -999
2003-02-11 07:34:29 51°13.677 2°55.844 118.1 5.2 296.6 -999
2003-02-11 07:34:35 51°13.68 2°55.832 117.2 5.1 296 -999
2003-02-11 07:34:39 51°13.683 2°55.823 116.4 5.1 295.3 -999
2003-02-11 07:34:44 51°13.686 2°55.813 115.4 5.1 294.8 -999
2003-02-11 07:34:49 51°13.688 2°55.803 114.3 5 294.3 -999
2003-02-11 07:34:54 51°13.691 2°55.793 113.2 5 293.8 -999
2003-02-11 07:34:59 51°13.694 2°55.784 111.9 4.8 292.9 -999
2003-02-11 07:35:04 51°13.696 2°55.774 110.6 4.8 292.3 -999
2003-02-11 07:35:09 51°13.698 2°55.765 109 4.5 291.4 -999
2003-02-11 07:35:14 51°13.7 2°55.756 107.6 4.4 290.7 -999
2003-02-11 07:35:19 51°13.702 2°55.748 105.9 4.1 289.6 -999
2003-02-11 07:35:24 51°13.704 2°55.741 103.6 3.6 289.5 -999
2003-02-11 07:35:29 51°13.704 2°55.735 99.8 3 287.4 -999
2003-02-11 07:35:34 51°13.706 2°55.731 95.7 2.5 287.1 -999
2003-02-11 07:35:39 51°13.706 2°55.729 91.1 1.7 289.3 -999
2003-02-11 07:35:45 51°13.707 2°55.727 85.8 1 299 -999
2003-02-11 07:35:49 51°13.707 2°55.727 79.8 0.6 330.6 -999
2003-02-11 07:35:54 51°13.709 2°55.728 73.3 0.7 13.3 -999
2003-02-11 07:35:59 51°13.709 2°55.729 67.1 0.9 30.7 -999
2003-02-11 07:36:05 51°13.711 2°55.731 60.9 1.2 35.7 -999
2003-02-11 07:36:09 51°13.712 2°55.733 55.1 1.3 36.3 -999
2003-02-11 07:36:13 51°13.713 2°55.734 50.8 1.4 32.3 -999
2003-02-11 07:36:19 51°13.715 2°55.735 47.6 1.3 27.6 -999
2003-02-11 07:36:25 51°13.716 2°55.736 44.2 1.1 20.1 -999
2003-02-11 07:36:29 51°13.717 2°55.736 41.5 1 16.4 13.2
2003-02-11 07:36:34 51°13.717 2°55.735 39.1 0.8 8.4 13.1
2003-02-11 07:36:38 51°13.717 2°55.734 36.2 0.5 331.4 -999
2003-02-11 07:36:43 51°13.717 2°55.732 33.7 0.5 279.4 13.2
2003-02-11 07:36:48 51°13.716 2°55.731 31.4 0.8 249.5 13.1
2003-02-11 07:36:52 51°13.716 2°55.729 29.5 1 237.8 12.4
2003-02-11 07:36:59 51°13.714 2°55.726 27.5 1.2 228.3 -999
2003-02-11 07:37:04 51°13.712 2°55.724 25.4 1.3 224.5 -999
2003-02-11 07:37:09 51°13.711 2°55.722 23.7 1.1 223.6 -999
2003-02-11 07:37:15 51°13.71 2°55.72 22.3 1 223.2 -999
2003-02-11 07:37:19 51°13.709 2°55.719 20.3 0.9 225.8 -999
2003-02-11 07:37:25 51°13.709 2°55.718 18.1 0.7 233 -999
2003-02-11 07:37:29 51°13.709 2°55.717 15.2 0.5 241.6 -999
2003-02-11 07:37:34 51°13.709 2°55.716 12.1 0.4 262.4 -999
2003-02-11 07:37:39 51°13.71 2°55.716 8.7 0.4 324.7 -999
2003-02-11 07:37:45 51°13.711 2°55.716 4.9 0.7 340.9 -999
2003-02-11 07:37:49 51°13.712 2°55.715 0.7 0.9 344.2 -999
2003-02-11 07:37:55 51°13.714 2°55.714 356.3 1.1 344.9 -999
2003-02-11 07:37:59 51°13.716 2°55.713 352.3 1.4 341.9 -999
2003-02-11 07:38:05 51°13.719 2°55.711 349.1 1.7 341 -999
2003-02-11 07:38:09 51°13.721 2°55.71 346.6 2 338.7 -999
2003-02-11 07:38:15 51°13.724 2°55.707 345 2.2 337.7 -999
2003-02-11 07:38:19 51°13.727 2°55.706 344.1 2.4 336.9 12.7
2003-02-11 07:38:24 51°13.73 2°55.703 343.5 2.5 336.8 12.2
2003-02-11 07:38:29 51°13.734 2°55.7 343.1 2.7 336.5 12.2
2003-02-11 07:38:34 51°13.738 2°55.698 343.1 2.9 336.6 -999
2003-02-11 07:38:39 51°13.742 2°55.695 343.2 3.2 336.6 -999
2003-02-11 07:38:44 51°13.747 2°55.692 343.2 3.4 336.5 11.7
2003-02-11 07:38:49 51°13.751 2°55.688 342.7 3.5 336.4 12
2003-02-11 07:38:52 51°13.754 2°55.686 342.3 3.6 335.4 11.5
2003-02-11 07:38:59 51°13.761 2°55.681 341.7 3.8 335.3 -999
2003-02-11 07:39:04 51°13.766 2°55.677 341 4 335.1 -999
2003-02-11 07:39:09 51°13.771 2°55.673 340.7 4.1 335.1 -999
2003-02-11 07:39:14 51°13.777 2°55.669 340.7 4.3 334.9 12
2003-02-11 07:39:18 51°13.782 2°55.666 340.7 4.1 335 11.5
2003-02-11 07:39:24 51°13.789 2°55.66 340.7 4.4 335.4 11
2003-02-11 07:39:28 51°13.794 2°55.656 340.4 4.9 335.7 -999
2003-02-11 07:39:34 51°13.803 2°55.651 340.1 5.2 335.7 -999
2003-02-11 07:39:39 51°13.81 2°55.646 339.7 5.4 335.8 -999
2003-02-11 07:39:44 51°13.817 2°55.641 339.6 5.5 335.9 -999
2003-02-11 07:39:49 51°13.824 2°55.636 339.9 5.7 336.2 -999
2003-02-11 07:39:53 51°13.83 2°55.631 340.4 5.8 336.2 -999
2003-02-11 07:39:59 51°13.839 2°55.625 340.6 6 336.6 -999
2003-02-11 07:40:04 51°13.847 2°55.62 340.6 6.1 336.4 12
2003-02-11 07:40:09 51°13.855 2°55.614 340.4 6.2 336.6 11.8
2003-02-11 07:40:13 51°13.862 2°55.609 340.3 6.4 336 -999
2003-02-11 07:40:19 51°13.872 2°55.602 340.4 6.5 336.2 11.6
2003-02-11 07:40:24 51°13.881 2°55.596 340.3 6.7 336.1 -999
2003-02-11 07:40:29 51°13.889 2°55.59 340.1 6.7 336.2 11.3
2003-02-11 07:40:34 51°13.898 2°55.584 340.3 6.8 336 11.6
2003-02-11 07:40:39 51°13.906 2°55.578 340.4 6.9 336.5 -999
2003-02-11 07:40:44 51°13.915 2°55.571 340.4 6.9 336.4 11.6
2003-02-11 07:40:48 51°13.922 2°55.566 340.3 7 336.5 11.6
2003-02-11 07:40:54 51°13.933 2°55.559 340.3 7 336.3 11.3
2003-02-11 07:40:59 51°13.942 2°55.553 340.1 7.1 336.4 -999
2003-02-11 07:41:04 51°13.951 2°55.546 339.6 7.1 336.1 -999
2003-02-11 07:41:09 51°13.96 2°55.54 339.2 7.1 335.9 11.5
2003-02-11 07:41:13 51°13.968 2°55.535 338.9 7.2 335.7 11.6
2003-02-11 07:41:19 51°13.978 2°55.526 338.8 7.2 335.2 11.5
2003-02-11 07:41:24 51°13.988 2°55.519 338.8 7.2 335 11.5
2003-02-11 07:41:29 51°13.997 2°55.513 338.8 7.3 335.2 -999
2003-02-11 07:41:34 51°14.006 2°55.506 338.5 7.3 335 11.5
2003-02-11 07:41:39 51°14.015 2°55.498 338.2 7.4 334.6 11.3
2003-02-11 07:41:44 51°14.025 2°55.491 338 7.5 334.3 11.5
2003-02-11 07:41:49 51°14.034 2°55.484 338.2 7.5 334.4 11.3
2003-02-11 07:41:53 51°14.042 2°55.478 338.3 7.6 334.1 11.5
2003-02-11 07:41:58 51°14.051 2°55.47 338.2 7.6 334.1 11.4
2003-02-11 07:42:04 51°14.062 2°55.461 337.9 7.6 333.9 10.8
2003-02-11 07:42:08 51°14.07 2°55.455 337.9 7.7 333.7 11
2003-02-11 07:42:13 51°14.08 2°55.448 338.5 7.7 333.7 11.4
2003-02-11 07:42:19 51°14.092 2°55.439 338.7 7.8 334.4 -999
2003-02-11 07:42:25 51°14.104 2°55.43 338.5 7.8 334.5 -999
2003-02-11 07:42:29 51°14.112 2°55.424 338.4 7.9 334.4 11.6
2003-02-11 07:42:33 51°14.12 2°55.418 338.3 7.9 334.2 11.6
2003-02-11 07:42:39 51°14.132 2°55.409 338.2 7.9 334.1 -999
2003-02-11 07:42:44 51°14.142 2°55.401 338.2 7.9 334.1 -999
2003-02-11 07:42:49 51°14.151 2°55.393 337.9 7.9 333.8 -999
2003-02-11 07:42:54 51°14.161 2°55.385 336.9 8 333.1 -999
2003-02-11 07:42:59 51°14.171 2°55.376 335.8 8 332.1 -999
2003-02-11 07:43:05 51°14.183 2°55.365 334.3 8.1 331.2 -999
2003-02-11 07:43:09 51°14.191 2°55.358 332.6 8.2 329.6 -999
2003-02-11 07:43:14 51°14.2 2°55.348 331.5 8.2 328.5 -999
2003-02-11 07:43:19 51°14.21 2°55.338 330.3 8.3 327.1 11.5
2003-02-11 07:43:24 51°14.219 2°55.327 328.5 8.3 325.8 -999
2003-02-11 07:43:29 51°14.228 2°55.316 326.6 8.3 324 11.5
2003-02-11 07:43:33 51°14.235 2°55.307 324.7 8.4 321.6 -999
2003-02-11 07:43:39 51°14.246 2°55.292 322.9 8.5 320 -999
2003-02-11 07:43:45 51°14.257 2°55.276 320.8 8.6 317.9 -999
2003-02-11 07:43:49 51°14.264 2°55.265 319.1 8.8 316 -999
2003-02-11 07:43:55 51°14.274 2°55.248 317.8 8.9 314.2 -999
2003-02-11 07:43:59 51°14.281 2°55.236 316.8 9 313.1 11.4
2003-02-11 07:44:04 51°14.289 2°55.221 315.7 9.1 312.3 11.8
2003-02-11 07:44:08 51°14.296 2°55.208 315.1 9.2 311.5 11.9
2003-02-11 07:44:12 51°14.303 2°55.196 315.1 9.3 311 11.9
2003-02-11 07:44:18 51°14.313 2°55.177 314.9 9.3 311 12
2003-02-11 07:44:24 51°14.323 2°55.158 314.5 9.4 310.3 -999
2003-02-11 07:44:29 51°14.332 2°55.142 314.9 9.4 310.3 11.8
2003-02-11 07:44:34 51°14.34 2°55.125 315.7 9.5 310.7 11.6
2003-02-11 07:44:38 51°14.347 2°55.113 316.6 9.5 310.7 11.6
2003-02-11 07:44:42 51°14.354 2°55.1 317.9 9.6 312.3 11.8
2003-02-11 07:44:48 51°14.365 2°55.082 318.5 9.6 313.1 12
2003-02-11 07:44:52 51°14.373 2°55.07 319.2 9.6 314 12.4
2003-02-11 07:44:58 51°14.385 2°55.052 320.1 9.6 314 12.2
2003-02-11 07:45:04 51°14.397 2°55.034 321.5 9.8 315.9 12.2
2003-02-11 07:45:08 51°14.407 2°55.022 323.2 10.1 317.1 12
2003-02-11 07:45:12 51°14.416 2°55.01 324.7 10.7 320.5 11.9
2003-02-11 07:45:18 51°14.431 2°54.993 326.3 10.8 321.3 11.9
2003-02-11 07:45:23 51°14.444 2°54.978 327.3 11.2 323.8 11.7
2003-02-11 07:45:28 51°14.457 2°54.964 328 11.5 325.3 11.8
2003-02-11 07:45:32 51°14.468 2°54.952 328.2 11.5 325.4 11.5
2003-02-11 07:45:39 51°14.487 2°54.932 328.5 11.8 326.2 11.5
2003-02-11 07:45:43 51°14.499 2°54.92 328.5 12 326.4 11.4
2003-02-11 07:45:48 51°14.513 2°54.905 328.5 12.1 326.6 11.4
2003-02-11 07:45:53 51°14.527 2°54.891 328.8 12.2 327 11.4
2003-02-11 07:45:59 51°14.544 2°54.873 328.9 12.3 327.7 11.5
2003-02-11 07:46:03 51°14.556 2°54.861 328.6 12.3 327.6 11.4
2003-02-11 07:46:08 51°14.57 2°54.847 328.4 12.4 327.5 11.4
2003-02-11 07:46:13 51°14.585 2°54.832 328.4 12.4 327.4 11.4
2003-02-11 07:46:19 51°14.602 2°54.815 328.5 12.4 327.6 11.3
2003-02-11 07:46:23 51°14.614 2°54.803 328.5 12.5 327.6 11.3
2003-02-11 07:46:27 51°14.626 2°54.791 328.6 12.6 327.7 11.1
2003-02-11 07:46:33 51°14.644 2°54.773 328.3 12.7 327.7 11.1
2003-02-11 07:46:39 51°14.662 2°54.754 328.2 12.8 327.4 11.1
2003-02-11 07:46:43 51°14.674 2°54.742 328.3 12.9 327.6 11.1
2003-02-11 07:46:48 51°14.689 2°54.727 328.3 12.9 327.5 11.1
2003-02-11 07:46:53 51°14.705 2°54.712 328.3 12.9 327.6 11.2
2003-02-11 07:46:57 51°14.717 2°54.699 328.4 12.9 327.6 11.4
2003-02-11 07:47:04 51°14.738 2°54.678 328.6 12.9 327.8 11.1
2003-02-11 07:47:08 51°14.75 2°54.666 328.7 13 327.9 11.1
2003-02-11 07:47:12 51°14.763 2°54.654 328.7 13 328.1 11.1
2003-02-11 07:47:19 51°14.784 2°54.633 328.3 13.1 328 11
2003-02-11 07:47:23 51°14.797 2°54.62 328.2 13.1 327.9 11.1
2003-02-11 07:47:28 51°14.812 2°54.605 328.2 13 327.8 11
2003-02-11 07:47:32 51°14.824 2°54.593 328.2 13 327.7 11.1
2003-02-11 07:47:39 51°14.845 2°54.571 328.2 13 327.7 11.1
2003-02-11 07:47:44 51°14.861 2°54.555 328.4 13.1 327.7 11.1
2003-02-11 07:47:48 51°14.873 2°54.543 328.6 13.1 327.9 11.1
2003-02-11 07:47:53 51°14.888 2°54.528 328.6 13.1 327.9 11
2003-02-11 07:47:59 51°14.907 2°54.509 328.5 13.1 327.7 10.9
2003-02-11 07:48:04 51°14.922 2°54.493 328.4 13.1 327.5 10.7
2003-02-11 07:48:08 51°14.934 2°54.481 328.3 13.1 327.4 10.6
2003-02-11 07:48:13 51°14.95 2°54.465 328.3 13.1 327.4 10.4
2003-02-11 07:48:18 51°14.965 2°54.449 328.5 13.1 327.4 10.4
2003-02-11 07:48:23 51°14.98 2°54.434 328.5 13.1 327.4 10.3
2003-02-11 07:48:28 51°14.996 2°54.418 328.4 13.1 327.4 10.3
2003-02-11 07:48:33 51°15.011 2°54.402 328.1 13.1 327.3 10.3
2003-02-11 07:48:37 51°15.023 2°54.39 328.2 13.2 327.1 10.2
2003-02-11 07:48:43 51°15.042 2°54.371 328.7 13.2 327.6 10.3
2003-02-11 07:48:48 51°15.057 2°54.356 328.8 13.2 327.8 10.2
2003-02-11 07:48:52 51°15.07 2°54.343 329.1 13.2 327.8 10.3
2003-02-11 07:48:58 51°15.088 2°54.324 329.1 13.2 327.8 10.4
2003-02-11 07:49:00 51°15.095 2°54.318 329.1 13.3 328 10.4
2003-02-11 07:49:08 51°15.12 2°54.293 329.1 13.3 328 10.4
2003-02-11 07:49:13 51°15.136 2°54.278 329.2 13.3 328 10.4
2003-02-11 07:49:18 51°15.152 2°54.262 329.1 13.3 328 10.4
2003-02-11 07:49:24 51°15.17 2°54.243 328.7 13.3 327.8 10.6
2003-02-11 07:49:28 51°15.183 2°54.231 328.7 13.3 327.4 10.6
2003-02-11 07:49:32 51°15.195 2°54.218 328.7 13.3 327.5 10.7
2003-02-11 07:49:39 51°15.217 2°54.195 328.5 13.4 327.3 10.8
2003-02-11 07:49:43 51°15.229 2°54.183 328.3 13.4 327.2 10.8
2003-02-11 07:49:48 51°15.245 2°54.167 328.4 13.4 327.2 10.8
2003-02-11 07:49:52 51°15.258 2°54.154 328.7 13.4 327.3 10.9
2003-02-11 07:49:58 51°15.277 2°54.135 328.9 13.3 327.5 11
2003-02-11 07:50:03 51°15.293 2°54.12 329.3 13.4 327.9 11.1
2003-02-11 07:50:08 51°15.309 2°54.105 329.4 13.4 328.3 11.1
2003-02-11 07:50:13 51°15.324 2°54.089 329.4 13.4 328.4 11.1
2003-02-11 07:50:19 51°15.343 2°54.071 329.5 13.4 328.6 11.2
2003-02-11 07:50:23 51°15.356 2°54.058 329.3 13.4 328.6 11.3
2003-02-11 07:50:28 51°15.372 2°54.043 329.5 13.4 328.6 11.4
2003-02-11 07:50:33 51°15.388 2°54.027 329.3 13.4 328.7 11.4
2003-02-11 07:50:38 51°15.404 2°54.012 329.3 13.4 328.6 11.5
2003-02-11 07:50:44 51°15.422 2°53.993 328 13.3 328.2 11.5
2003-02-11 07:50:49 51°15.437 2°53.977 327.3 13.3 326.9 11.6
2003-02-11 07:50:53 51°15.45 2°53.964 326.7 13.3 326.6 11.7
2003-02-11 07:50:58 51°15.465 2°53.947 326.1 13.3 326.6 11.7
2003-02-11 07:51:02 51°15.477 2°53.934 325.9 13.2 325.4 11.9
2003-02-11 07:51:06 51°15.489 2°53.92 325.7 13.2 325.3 11.9
2003-02-11 07:51:13 51°15.51 2°53.897 325.5 13.2 325.1 12
2003-02-11 07:51:18 51°15.525 2°53.88 325.5 13.3 325.1 12
2003-02-11 07:51:23 51°15.54 2°53.863 325.5 13.4 325 12.1
2003-02-11 07:51:29 51°15.558 2°53.842 325.6 13.5 324.9 12.2
2003-02-11 07:51:32 51°15.568 2°53.832 325.7 13.6 325 12.2
2003-02-11 07:51:39 51°15.59 2°53.807 325.8 13.7 325.1 12.3
2003-02-11 07:51:43 51°15.602 2°53.793 325.8 13.8 325.2 12.4
2003-02-11 07:51:48 51°15.618 2°53.776 326 13.8 325.4 12.5
2003-02-11 07:51:53 51°15.634 2°53.759 326.2 13.9 325.6 12.5
2003-02-11 07:51:58 51°15.65 2°53.742 326.3 13.9 325.8 12.5
2003-02-11 07:52:03 51°15.666 2°53.724 326 13.9 325.6 12.7
2003-02-11 07:52:08 51°15.682 2°53.706 325.8 14 325.3 12.7
2003-02-11 07:52:12 51°15.695 2°53.692 325.8 14 325.3 12.7
2003-02-11 07:52:19 51°15.717 2°53.668 326 14 325.4 12.7
2003-02-11 07:52:23 51°15.73 2°53.654 326.3 14 325.7 12.9
2003-02-11 07:52:28 51°15.746 2°53.636 326.3 14 325.6 12.9
2003-02-11 07:52:33 51°15.762 2°53.619 326 14 325.6 12.9
2003-02-11 07:52:36 51°15.772 2°53.608 325.8 14.1 325.3 13
2003-02-11 07:52:43 51°15.794 2°53.583 326 14.1 325.3 13.1
2003-02-11 07:52:49 51°15.813 2°53.562 326.1 14.1 325.6 13.1
2003-02-11 07:52:53 51°15.826 2°53.548 326 14.1 325.6 13.2
2003-02-11 07:52:58 51°15.842 2°53.53 325.6 14.1 325.3 13.2
2003-02-11 07:53:03 51°15.858 2°53.512 325.4 14 324.7 13.2
2003-02-11 07:53:08 51°15.873 2°53.494 325.3 14 324 13.4
2003-02-11 07:53:13 51°15.889 2°53.476 325.6 14 323.9 13.4
2003-02-11 07:53:17 51°15.902 2°53.461 325.8 14 324.1 13.4
2003-02-11 07:53:23 51°15.921 2°53.44 325.8 14 324.3 13.4
2003-02-11 07:53:28 51°15.937 2°53.421 326.2 14 324.6 13.4
2003-02-11 07:53:33 51°15.953 2°53.404 326.4 14.1 324.9 13.5
2003-02-11 07:53:37 51°15.965 2°53.389 326.4 14.1 325 13.5
2003-02-11 07:53:43 51°15.984 2°53.368 326.6 14.1 325 13.6
2003-02-11 07:53:48 51°16 2°53.35 326.1 14.1 324.9 13.7
2003-02-11 07:53:52 51°16.013 2°53.336 326.1 14.1 324.9 13.6
2003-02-11 07:53:56 51°16.026 2°53.321 326.1 14.1 324.5 13.7
2003-02-11 07:54:04 51°16.051 2°53.292 325.9 14.1 324.5 13.7
2003-02-11 07:54:08 51°16.063 2°53.278 326 14.1 324.4 13.8
2003-02-11 07:54:13 51°16.079 2°53.26 326.6 14.1 324.7 13.7
2003-02-11 07:54:18 51°16.095 2°53.242 326.6 14.1 325.1 13.8
2003-02-11 07:54:23 51°16.111 2°53.225 326.7 14.1 325.4 13.8
2003-02-11 07:54:28 51°16.127 2°53.207 326.6 14.1 325.4 13.9
2003-02-11 07:54:33 51°16.143 2°53.189 326.5 14 325.3 13.9
2003-02-11 07:54:39 51°16.163 2°53.168 327.5 14 325.6 13.9
2003-02-11 07:54:43 51°16.176 2°53.155 328.1 14.1 326.7 14
2003-02-11 07:54:48 51°16.192 2°53.138 328.7 14.1 327.1 14
2003-02-11 07:54:53 51°16.209 2°53.122 329.3 14.1 327.1 14
2003-02-11 07:54:59 51°16.229 2°53.102 329.5 14.1 328.3 14.1
2003-02-11 07:55:03 51°16.242 2°53.089 329.6 14.1 328.6 14
2003-02-11 07:55:08 51°16.259 2°53.073 329.5 14.1 328.4 14.1
2003-02-11 07:55:13 51°16.275 2°53.056 329.3 14.1 328.2 14.2
2003-02-11 07:55:18 51°16.292 2°53.04 329.5 14.1 328.2 14.1
2003-02-11 07:55:22 51°16.305 2°53.027 329.5 14.1 328.4 14.1
2003-02-11 07:55:28 51°16.326 2°53.007 329.3 14.1 328.4 14.1
2003-02-11 07:55:33 51°16.342 2°52.991 329.6 14.1 328.4 14
2003-02-11 07:55:39 51°16.362 2°52.971 329.7 14.1 328.7 14.2
2003-02-11 07:55:43 51°16.376 2°52.958 329.5 14.1 328.6 14
2003-02-11 07:55:48 51°16.392 2°52.942 329.5 14.2 328.6 13.9
2003-02-11 07:55:53 51°16.409 2°52.926 329.7 14.1 328.6 13.9
2003-02-11 07:55:58 51°16.426 2°52.91 329.6 14.1 328.8 13.9
2003-02-11 07:56:04 51°16.446 2°52.89 329.5 14.1 328.8 13.8
2003-02-11 07:56:08 51°16.459 2°52.877 329.3 14.1 328.7 13.7
2003-02-11 07:56:13 51°16.476 2°52.861 329.3 14.1 328.5 13.7
2003-02-11 07:56:17 51°16.49 2°52.848 329.5 14.1 328.6 13.7
2003-02-11 07:56:24 51°16.513 2°52.825 329.5 14.1 328.6 13.6
2003-02-11 07:56:29 51°16.53 2°52.809 329.5 14.1 328.6 13.4
2003-02-11 07:56:32 51°16.54 2°52.799 329.5 14.1 328.8 13.5
2003-02-11 07:56:39 51°16.563 2°52.777 329.5 14.1 328.8 13.2
2003-02-11 07:56:43 51°16.576 2°52.764 329.5 14.1 328.8 13.2
2003-02-11 07:56:47 51°16.59 2°52.751 329.6 14.1 328.9 13.1
2003-02-11 07:56:53 51°16.61 2°52.732 329.6 14.1 328.9 13.1
2003-02-11 07:56:58 51°16.627 2°52.715 329.2 14.1 328.8 12.9
2003-02-11 07:57:03 51°16.643 2°52.699 329.2 14.1 328.7 12.7
2003-02-11 07:57:07 51°16.657 2°52.686 329.4 14.1 328.8 12.6
2003-02-11 07:57:13 51°16.677 2°52.667 329.4 14.1 328.8 12.4
2003-02-11 07:57:17 51°16.69 2°52.654 329.4 14.1 328.7 12.3
2003-02-11 07:57:23 51°16.71 2°52.634 329.1 14.1 328.6 12
2003-02-11 07:57:28 51°16.727 2°52.618 328.9 14.1 328.4 11.5
2003-02-11 07:57:32 51°16.74 2°52.605 328.9 14.1 328.4 11.2
2003-02-11 07:57:38 51°16.76 2°52.586 329.1 14.1 328.4 11.5
2003-02-11 07:57:44 51°16.78 2°52.566 329.2 14 328.7 11.8
2003-02-11 07:57:48 51°16.793 2°52.553 329.2 14 328.7 11.8
2003-02-11 07:57:52 51°16.807 2°52.541 329.8 14.1 328.9 11.6
2003-02-11 07:57:58 51°16.826 2°52.521 330.9 14.1 329.4 11.5
2003-02-11 07:58:03 51°16.843 2°52.506 332 14.2 331.2 11.6
2003-02-11 07:58:08 51°16.86 2°52.492 333.6 14.2 331.9 11.9
2003-02-11 07:58:13 51°16.878 2°52.479 335.4 14.2 331.9 11.8
2003-02-11 07:58:18 51°16.897 2°52.467 336.6 14.2 335 11.5
2003-02-11 07:58:23 51°16.916 2°52.455 337.7 14.3 336.5 11.3
2003-02-11 07:58:28 51°16.934 2°52.443 338.3 14.3 337.4 11.3
2003-02-11 07:58:32 51°16.949 2°52.434 339 14.3 337.6 11.2
2003-02-11 07:58:39 51°16.975 2°52.418 339.5 14.3 338.6 11.2
2003-02-11 07:58:43 51°16.99 2°52.409 340.8 14.3 339.4 11.3
2003-02-11 07:58:48 51°17.009 2°52.399 342.4 14.3 339.4 11.4
2003-02-11 07:58:52 51°17.024 2°52.391 343.3 14.3 341.6 11.4
2003-02-11 07:58:58 51°17.047 2°52.381 344.6 14.4 342.8 11.5
2003-02-11 07:59:03 51°17.066 2°52.372 345 14.5 343.9 11.6
2003-02-11 07:59:08 51°17.086 2°52.364 345.9 14.5 344 11.7
2003-02-11 07:59:13 51°17.105 2°52.355 346.1 14.5 345 11.6
2003-02-11 07:59:19 51°17.129 2°52.346 346.3 14.5 345.3 11.7
2003-02-11 07:59:23 51°17.145 2°52.339 346.2 14.5 345.5 11.7
2003-02-11 07:59:28 51°17.164 2°52.331 346.2 14.6 345.3 11.8
2003-02-11 07:59:33 51°17.184 2°52.323 345.9 14.6 345.2 12
2003-02-11 07:59:37 51°17.2 2°52.316 345.9 14.6 344.9 11.9
2003-02-11 07:59:43 51°17.223 2°52.306 345.9 14.6 345 11.9
2003-02-11 07:59:48 51°17.243 2°52.298 347.1 14.6 345.2 12
2003-02-11 07:59:53 51°17.263 2°52.292 348.7 14.6 345.2 11.9
2003-02-11 07:59:58 51°17.283 2°52.285 349.9 14.6 345.2 12.2
2003-02-11 08:00:04 51°17.307 2°52.279 350.6 14.6 349.6 12.1
2003-02-11 08:00:09 51°17.327 2°52.273 351.3 14.6 349.6 12
2003-02-11 08:00:12 51°17.339 2°52.271 353.7 14.7 352.3 12.1
2003-02-11 08:00:18 51°17.363 2°52.267 355.6 14.7 352.7 12.1
2003-02-11 08:00:24 51°17.388 2°52.265 357 14.7 352.7 12
2003-02-11 08:00:28 51°17.404 2°52.263 357.9 14.7 355.9 12
2003-02-11 08:00:33 51°17.424 2°52.262 359.1 14.7 356.2 12.1
2003-02-11 08:00:38 51°17.445 2°52.26 359.7 14.8 357.5 12
2003-02-11 08:00:43 51°17.465 2°52.259 0.2 14.8 358.3 12.1
2003-02-11 08:00:48 51°17.486 2°52.259 0.7 14.8 358.3 12.1
2003-02-11 08:00:53 51°17.507 2°52.259 0.9 14.8 358.3 12
2003-02-11 08:00:59 51°17.531 2°52.258 0.9 14.8 359.2 12
2003-02-11 08:01:03 51°17.548 2°52.258 1 14.8 359.3 12.1
2003-02-11 08:01:08 51°17.568 2°52.257 0.9 14.8 359.1 12.1
2003-02-11 08:01:13 51°17.589 2°52.257 0.7 14.8 359.2 12
2003-02-11 08:01:17 51°17.606 2°52.256 0.9 14.8 359 12
2003-02-11 08:01:23 51°17.63 2°52.256 0.9 14.8 359 12.1
2003-02-11 08:01:28 51°17.651 2°52.255 1 14.8 359 12.1
2003-02-11 08:01:33 51°17.672 2°52.255 1 14.8 359.1 12
2003-02-11 08:01:37 51°17.688 2°52.254 1 14.8 359 12.1
2003-02-11 08:01:43 51°17.713 2°52.254 1.2 14.8 359 12
2003-02-11 08:01:53 51°17.754 2°52.257 6.4 14.8 1.2 12
2003-02-11 08:01:57 51°17.77 2°52.26 8.7 14.9 5.2 12.1
2003-02-11 08:02:03 51°17.794 2°52.265 9.9 14.9 5.2 12
2003-02-11 08:02:08 51°17.814 2°52.271 11.4 14.9 8.4 12
2003-02-11 08:02:13 51°17.835 2°52.276 12.8 14.9 9.1 12.2
2003-02-11 08:02:19 51°17.859 2°52.284 13.3 14.9 9.6 12.1
2003-02-11 08:02:23 51°17.875 2°52.289 15.1 14.9 11.2 12
2003-02-11 08:02:28 51°17.896 2°52.297 17.5 14.9 12.4 12.1
2003-02-11 08:02:32 51°17.912 2°52.304 20 15 15.2 12
2003-02-11 08:02:38 51°17.935 2°52.317 21.8 15 16.7 12.2
2003-02-11 08:02:44 51°17.959 2°52.33 23.3 15 18.3 12
2003-02-11 08:02:48 51°17.974 2°52.34 24.5 14.9 20.2 12.2
2003-02-11 08:02:52 51°17.989 2°52.349 25.8 14.9 21.1 12.2
2003-02-11 08:02:59 51°18.017 2°52.367 26.1 15 22.1 12.2
2003-02-11 08:03:03 51°18.032 2°52.377 26.6 14.9 22.3 12.2
2003-02-11 08:03:08 51°18.051 2°52.39 26.8 14.9 22.8 12.2
2003-02-11 08:03:13 51°18.07 2°52.402 26.9 14.8 22.7 12.3
2003-02-11 08:03:16 51°18.081 2°52.41 26.4 14.9 22.5 12.2
2003-02-11 08:03:23 51°18.108 2°52.428 26.3 14.9 22.2 12.3
2003-02-11 08:03:27 51°18.123 2°52.438 26.4 14.9 22.3 12.3
2003-02-11 08:03:33 51°18.146 2°52.453 26.5 14.9 22.3 12.4
2003-02-11 08:03:37 51°18.161 2°52.463 26.1 14.9 22 12.3
2003-02-11 08:03:43 51°18.185 2°52.478 26.1 14.9 21.8 12.5
2003-02-11 08:03:48 51°18.204 2°52.489 25.7 14.9 21.6 12.3
2003-02-11 08:03:53 51°18.223 2°52.502 26.7 14.9 21.8 12.4
2003-02-11 08:03:58 51°18.242 2°52.516 29.9 14.9 22.5 12.5
2003-02-11 08:04:03 51°18.26 2°52.531 32.6 14.9 24.8 12.5
2003-02-11 08:04:08 51°18.278 2°52.548 34.5 14.9 24.8 12.5
2003-02-11 08:04:13 51°18.296 2°52.565 36.1 14.9 30 12.6
2003-02-11 08:04:17 51°18.31 2°52.58 37.1 14.9 31.3 12.6
2003-02-11 08:04:23 51°18.331 2°52.601 38.1 14.9 32.4 12.6
2003-02-11 08:04:27 51°18.344 2°52.616 38.8 14.8 33.8 12.7
2003-02-11 08:04:32 51°18.361 2°52.634 39 14.8 33.8 12.6
2003-02-11 08:04:36 51°18.374 2°52.649 39.4 14.9 34.8 12.8
2003-02-11 08:04:44 51°18.401 2°52.68 40.3 14.9 34.8 12.7
2003-02-11 08:04:48 51°18.414 2°52.695 41.3 14.8 36.3 12.8
2003-02-11 08:04:53 51°18.431 2°52.714 41.7 14.8 35.9 12.7
2003-02-11 08:04:58 51°18.447 2°52.735 42 14.8 37.2 12.8
2003-02-11 08:05:03 51°18.464 2°52.754 42 14.9 36.9 12.8
2003-02-11 08:05:08 51°18.48 2°52.775 42.6 14.9 37.5 12.9
2003-02-11 08:05:13 51°18.496 2°52.794 42.4 14.9 37.3 12.8
2003-02-11 08:05:19 51°18.516 2°52.818 42.7 14.8 37.5 12.9
2003-02-11 08:05:23 51°18.528 2°52.835 42.8 14.8 37.8 12.9
2003-02-11 08:05:28 51°18.545 2°52.855 43.5 14.8 37.9 12.9
2003-02-11 08:05:33 51°18.56 2°52.876 43.5 14.8 37.9 13
2003-02-11 08:05:37 51°18.573 2°52.892 43.7 14.9 38.1 13
2003-02-11 08:05:47 51°18.606 2°52.933 43.5 14.9 38.5 13
2003-02-11 08:05:51 51°18.618 2°52.95 43.8 14.9 38.8 13
2003-02-11 08:05:56 51°18.635 2°52.97 43.6 14.9 38.3 12.9
2003-02-11 08:05:59 51°18.644 2°52.982 43.7 14.9 38.5 13
2003-02-11 08:06:07 51°18.67 2°53.015 43.1 14.9 38 13
2003-02-11 08:06:08 51°18.674 2°53.019 43.5 14.9 38.2 13.1
2003-02-11 08:06:15 51°18.696 2°53.047 43.3 14.9 38.2 13.1
2003-02-11 08:06:21 51°18.716 2°53.072 43.3 14.9 38.1 13.1
2003-02-11 08:06:25 51°18.729 2°53.088 42.8 14.9 37.9 13.1
2003-02-11 08:06:32 51°18.752 2°53.116 42.6 14.9 37.5 13.2
2003-02-11 08:06:36 51°18.765 2°53.132 42.6 14.9 37.5 13.1
2003-02-11 08:06:40 51°18.779 2°53.148 43 14.9 37.6 13.2
2003-02-11 08:06:47 51°18.802 2°53.176 43.2 14.9 37.9 13.2
2003-02-11 08:06:50 51°18.811 2°53.189 43 15 37.8 13.2
2003-02-11 08:06:56 51°18.831 2°53.213 42.8 15 37.8 13.2
2003-02-11 08:07:00 51°18.844 2°53.23 44.3 14.9 37.8 13.3
2003-02-11 08:07:06 51°18.863 2°53.255 44.2 14.9 37.8 13.2
2003-02-11 08:07:16 51°18.895 2°53.297 45.6 14.9 39.7 13.3
2003-02-11 08:07:20 51°18.907 2°53.315 45.9 14.9 39.8 13.4
2003-02-11 08:07:25 51°18.923 2°53.336 45.9 15 40.2 13.3
2003-02-11 08:07:32 51°18.945 2°53.366 46.1 15 40.2 13.4
2003-02-11 08:07:36 51°18.958 2°53.383 46 15 40.3 13.4
2003-02-11 08:07:39 51°18.967 2°53.396 45.8 15 40.5 13.4
2003-02-11 08:07:47 51°18.993 2°53.43 45.7 15 40 13.3
2003-02-11 08:07:51 51°19.006 2°53.447 45.4 15 39.9 13.5
2003-02-11 08:07:56 51°19.022 2°53.468 45.2 15 39.8 13.5
2003-02-11 08:08:01 51°19.038 2°53.49 45.5 15 39.7 13.5
2003-02-11 08:08:05 51°19.051 2°53.507 45.4 15 39.8 13.5
2003-02-11 08:08:09 51°19.064 2°53.524 45.7 15 39.9 13.5
2003-02-11 08:08:16 51°19.086 2°53.554 45.7 15 40.2 13.5
2003-02-11 08:08:20 51°19.098 2°53.571 45.7 15 40.1 13.6
2003-02-11 08:08:26 51°19.118 2°53.597 45.3 15.1 39.8 13.7
2003-02-11 08:08:29 51°19.128 2°53.61 45.4 15.1 39.6 13.6
2003-02-11 08:08:37 51°19.153 2°53.644 45.6 15.1 39.6 13.7
2003-02-11 08:08:41 51°19.166 2°53.661 45.4 15.1 39.8 13.6
2003-02-11 08:08:45 51°19.179 2°53.678 45.4 15.1 39.7 13.7
2003-02-11 08:08:52 51°19.202 2°53.707 45 15.1 39.7 13.7
2003-02-11 08:08:56 51°19.214 2°53.725 44.8 15.1 39.3 13.7
2003-02-11 08:08:59 51°19.224 2°53.737 45.5 15 39.4 13.8
2003-02-11 08:09:07 51°19.25 2°53.771 45 15.1 39.7 13.8
2003-02-11 08:09:11 51°19.263 2°53.789 45.3 15.1 39.5 13.7
2003-02-11 08:09:16 51°19.279 2°53.81 45.4 15 39.8 13.7
2003-02-11 08:09:19 51°19.288 2°53.822 45.1 15 39.7 13.8
2003-02-11 08:09:26 51°19.311 2°53.852 45.1 15 39.7 13.7
2003-02-11 08:09:32 51°19.33 2°53.878 45 15 39.7 13.8
2003-02-11 08:09:36 51°19.343 2°53.895 44.9 15 39.7 13.8
2003-02-11 08:09:40 51°19.356 2°53.912 45 15.1 39.6 13.8
2003-02-11 08:09:47 51°19.379 2°53.941 44.8 15.1 39.3 13.8
2003-02-11 08:09:50 51°19.388 2°53.954 45.1 15.1 39.6 13.8
2003-02-11 08:09:56 51°19.408 2°53.98 45 15.1 39.6 13.9
2003-02-11 08:10:01 51°19.424 2°54.001 44.3 15.1 39.6 13.9
2003-02-11 08:10:05 51°19.437 2°54.017 44.7 15.1 39 13.8
2003-02-11 08:10:11 51°19.457 2°54.043 44.7 15.1 39.2 13.9
2003-02-11 08:10:15 51°19.47 2°54.06 44.6 15.1 39.1 13.9
2003-02-11 08:10:20 51°19.486 2°54.081 44.6 15.1 39.1 13.9
2003-02-11 08:10:25 51°19.502 2°54.102 44.3 15.1 38.9 13.9
2003-02-11 08:10:32 51°19.525 2°54.131 44.6 15.1 38.9 13.9
2003-02-11 08:10:36 51°19.538 2°54.148 44.7 15.1 39.2 14
2003-02-11 08:10:39 51°19.548 2°54.161 44.6 15 39 14
2003-02-11 08:10:45 51°19.567 2°54.186 44.8 15 39.2 14.1
2003-02-11 08:10:52 51°19.59 2°54.215 44.4 15 39.2 14
2003-02-11 08:10:56 51°19.603 2°54.232 44.7 15 39.1 14.1
2003-02-11 08:11:00 51°19.616 2°54.249 44.8 15.1 39.2 14
2003-02-11 08:11:06 51°19.635 2°54.274 44.8 15.1 39.2 14.1
2003-02-11 08:11:11 51°19.651 2°54.295 44.8 15.1 39.2 14.1
2003-02-11 08:11:16 51°19.668 2°54.316 44.5 15 38.9 14.2
2003-02-11 08:11:21 51°19.684 2°54.337 44.7 15 38.7 14.1
2003-02-11 08:11:26 51°19.7 2°54.358 45.2 15 39 14.2
2003-02-11 08:11:30 51°19.713 2°54.375 44.6 15.1 38.9 14.2
2003-02-11 08:11:36 51°19.732 2°54.4 44.9 15 39 14.3
2003-02-11 08:11:41 51°19.749 2°54.421 45 15 39 14.3
2003-02-11 08:11:46 51°19.765 2°54.442 45 15 39 14.3
2003-02-11 08:11:52 51°19.784 2°54.467 44.8 15 39.1 14.3
2003-02-11 08:11:57 51°19.8 2°54.488 44.8 15 38.8 14.4
2003-02-11 08:12:00 51°19.81 2°54.5 44.6 15 38.7 14.4
2003-02-11 08:12:07 51°19.833 2°54.529 44.5 15 38.7 14.6
2003-02-11 08:12:10 51°19.842 2°54.542 44.9 15 38.9 14.7
2003-02-11 08:12:16 51°19.862 2°54.567 44.9 15 38.9 14.7
2003-02-11 08:12:21 51°19.878 2°54.588 44.9 15 38.9 15
2003-02-11 08:12:25 51°19.891 2°54.604 44.8 15 38.8 14.8
2003-02-11 08:12:32 51°19.914 2°54.634 45 15 39.1 14.7
2003-02-11 08:12:36 51°19.927 2°54.65 44.8 15.1 38.7 14.9
2003-02-11 08:12:42 51°19.947 2°54.675 44.8 15.1 38.8 15
2003-02-11 08:12:47 51°19.963 2°54.696 44.9 15.1 38.7 14.9
2003-02-11 08:12:51 51°19.976 2°54.713 45 15.1 38.9 14.8
2003-02-11 08:12:56 51°19.992 2°54.734 45.1 15.1 38.8 14.8
2003-02-11 08:13:01 51°20.009 2°54.755 44.4 15.1 39.1 14.7
2003-02-11 08:13:07 51°20.028 2°54.78 44.8 15.1 38.3 14.8
2003-02-11 08:13:11 51°20.041 2°54.797 44.8 15.1 39.1 14.8
2003-02-11 08:13:16 51°20.058 2°54.818 44.5 15.1 38.6 14.8
2003-02-11 08:13:20 51°20.071 2°54.834 44.9 15.1 38.8 14.8
2003-02-11 08:13:26 51°20.09 2°54.86 44.6 15.1 38.8 14.8
2003-02-11 08:13:29 51°20.1 2°54.872 44.3 15.1 38.5 14.9
2003-02-11 08:13:36 51°20.123 2°54.901 43.9 15.1 38.5 14.9
2003-02-11 08:13:41 51°20.14 2°54.921 44.5 15.1 38.5 14.8
2003-02-11 08:13:44 51°20.15 2°54.934 44.9 15.1 38.6 14.8
2003-02-11 08:13:51 51°20.172 2°54.964 44.8 15.1 38.6 14.8
2003-02-11 08:13:56 51°20.189 2°54.984 44.3 15.1 38.6 15.1
2003-02-11 08:14:02 51°20.209 2°55.009 44.6 15.1 38.3 14.9
2003-02-11 08:14:04 51°20.215 2°55.018 44.6 15.2 38.6 15
2003-02-11 08:14:10 51°20.235 2°55.043 45 15.2 38.7 14.9
2003-02-11 08:14:16 51°20.254 2°55.069 45.9 15.2 39.4 15
2003-02-11 08:14:21 51°20.27 2°55.091 46.6 15.1 40.1 15
2003-02-11 08:14:27 51°20.289 2°55.117 46.8 15.1 40.6 14.9
2003-02-11 08:14:31 51°20.302 2°55.134 47 15.1 40.5 15.2
2003-02-11 08:14:36 51°20.318 2°55.156 47.5 15.1 41 15
2003-02-11 08:14:40 51°20.33 2°55.174 47.6 15.1 41.2 15
2003-02-11 08:14:47 51°20.352 2°55.205 47.2 15.1 41.1 15
2003-02-11 08:14:51 51°20.365 2°55.222 47.3 15.1 40.9 15
2003-02-11 08:14:56 51°20.381 2°55.244 47.9 15.1 41.2 14.9
2003-02-11 08:15:00 51°20.393 2°55.262 48.1 15.1 41.5 15.1
2003-02-11 08:15:06 51°20.413 2°55.289 47.9 15.1 41.6 15
2003-02-11 08:15:08 51°20.419 2°55.297 47.8 15.1 41.4 15
2003-02-11 08:15:16 51°20.444 2°55.333 47.9 15.1 41.3 15.2
2003-02-11 08:15:21 51°20.46 2°55.355 47.7 15.1 41.4 15.3
2003-02-11 08:15:25 51°20.473 2°55.372 47.1 15.1 41 15.2
2003-02-11 08:15:32 51°20.494 2°55.403 47.3 15.1 40.9 15.3
2003-02-11 08:15:36 51°20.507 2°55.42 47.3 15.1 41 15.3
2003-02-11 08:15:42 51°20.526 2°55.447 47.7 15.1 41 15.2
2003-02-11 08:15:44 51°20.533 2°55.455 47.4 15.1 40.8 15.3
2003-02-11 08:15:51 51°20.555 2°55.486 47.5 15.1 40.9 15.2
2003-02-11 08:15:56 51°20.57 2°55.508 47.9 15 41 15.4
2003-02-11 08:16:00 51°20.583 2°55.526 47.8 15.1 41.3 15.3
2003-02-11 08:16:07 51°20.604 2°55.557 48.3 15.1 41.5 15.4
2003-02-11 08:16:11 51°20.617 2°55.575 48.1 15.1 41.9 15.3
2003-02-11 08:16:16 51°20.632 2°55.597 48 15.1 41.9 15.5
2003-02-11 08:16:20 51°20.645 2°55.614 47.9 15 41.6 15.4
2003-02-11 08:16:27 51°20.667 2°55.645 48 15 41.7 15.4
2003-02-11 08:16:30 51°20.676 2°55.659 47.9 15.1 41.4 15.3
2003-02-11 08:16:36 51°20.695 2°55.685 47.7 15.1 41.3 15.5
2003-02-11 08:16:40 51°20.708 2°55.702 47.2 15 41.2 15.5
2003-02-11 08:16:45 51°20.723 2°55.724 47.3 15 40.9 15.4
2003-02-11 08:16:52 51°20.745 2°55.755 47.4 15 40.9 15.6
2003-02-11 08:16:56 51°20.758 2°55.772 47.1 15 41.1 15.6
2003-02-11 08:16:59 51°20.767 2°55.785 47.1 15 40.4 15.6
2003-02-11 08:17:07 51°20.792 2°55.82 47.3 15 40.8 15.5
2003-02-11 08:17:11 51°20.805 2°55.837 47.2 15 40.8 15.6
2003-02-11 08:17:15 51°20.817 2°55.855 47.5 15 41.1 15.6
2003-02-11 08:17:19 51°20.83 2°55.872 47.4 15 41.1 15.7
2003-02-11 08:17:26 51°20.852 2°55.903 47.2 15 41.3 15.6
2003-02-11 08:17:30 51°20.865 2°55.921 47.7 15 41.4 15.7
2003-02-11 08:17:36 51°20.883 2°55.947 47.6 15 41.4 15.6
2003-02-11 08:17:40 51°20.896 2°55.965 47.4 15 41.4 15.7
2003-02-11 08:17:46 51°20.915 2°55.991 47.4 15 41.3 15.8
2003-02-11 08:17:49 51°20.924 2°56.004 47.6 15 41.4 15.7
2003-02-11 08:17:56 51°20.946 2°56.035 48 15 41.5 15.7
2003-02-11 08:18:01 51°20.962 2°56.057 47.9 15 41.9 15.7
2003-02-11 08:18:05 51°20.974 2°56.075 47.9 15 41.6 15.8
2003-02-11 08:18:11 51°20.993 2°56.101 47.8 15 41.7 15.8
2003-02-11 08:18:16 51°21.009 2°56.124 48.2 15.1 42 15.9
2003-02-11 08:18:20 51°21.021 2°56.142 47.5 15.1 42 15.8
2003-02-11 08:18:27 51°21.043 2°56.173 47.6 15.1 41.7 16
2003-02-11 08:18:31 51°21.056 2°56.19 47.5 15.1 41.5 15.9
2003-02-11 08:18:36 51°21.071 2°56.213 47.8 15.1 41.8 16
2003-02-11 08:18:41 51°21.087 2°56.235 47.5 15.1 41.8 15.9
2003-02-11 08:18:45 51°21.1 2°56.253 47.2 15.1 41.5 15.9
2003-02-11 08:18:51 51°21.119 2°56.279 46.9 15.1 41.2 16
2003-02-11 08:18:56 51°21.135 2°56.301 46.8 15.1 40.9 16
2003-02-11 08:19:01 51°21.15 2°56.323 47.2 15.1 40.9 16
2003-02-11 08:19:05 51°21.163 2°56.34 47 15.1 41.3 16.2
2003-02-11 08:19:10 51°21.179 2°56.362 46.9 15.1 41.1 16.1
2003-02-11 08:19:16 51°21.198 2°56.389 47.1 15.1 41.1 16.2
2003-02-11 08:19:21 51°21.213 2°56.411 47.2 15.1 41.2 16.1
2003-02-11 08:19:26 51°21.229 2°56.433 47.1 15.1 41.2 16.2
2003-02-11 08:19:28 51°21.236 2°56.442 47.1 15.1 41.2 16.2
2003-02-11 08:19:36 51°21.261 2°56.477 47 15.1 41.2 16.2
2003-02-11 08:19:41 51°21.277 2°56.499 47.1 15.2 40.9 16.3
2003-02-11 08:19:47 51°21.296 2°56.525 47.1 15.1 41.2 16.3
2003-02-11 08:19:52 51°21.311 2°56.548 47.3 15.1 41.4 16.2
2003-02-11 08:19:56 51°21.324 2°56.565 47.4 15.1 41.4 16.3
2003-02-11 08:20:02 51°21.343 2°56.592 47 15.1 41.4 16.5
2003-02-11 08:20:04 51°21.349 2°56.6 47.1 15.1 41.3 16.5
2003-02-11 08:20:11 51°21.371 2°56.631 47.3 15.1 41.4 16.4
2003-02-11 08:20:15 51°21.384 2°56.649 47.4 15.1 41.4 16.3
2003-02-11 08:20:20 51°21.399 2°56.672 47.4 15.1 41.6 16.5
2003-02-11 08:20:26 51°21.418 2°56.698 47.4 15.1 41.6 16.6
2003-02-11 08:20:31 51°21.433 2°56.72 47.5 15.1 41.6 16.4
2003-02-11 08:20:36 51°21.449 2°56.743 47.7 15.1 41.8 16.4
2003-02-11 08:20:42 51°21.468 2°56.769 47.4 15.1 41.7 16.5
2003-02-11 08:20:46 51°21.48 2°56.787 47.5 15 41.6 16.5
2003-02-11 08:20:50 51°21.493 2°56.805 47.5 15.1 41.5 16.6
2003-02-11 08:20:56 51°21.512 2°56.832 47.5 15.1 41.7 16.5
2003-02-11 08:20:58 51°21.518 2°56.84 47.1 15.1 41.2 16.6
2003-02-11 08:21:06 51°21.543 2°56.875 46.9 15.1 41.3 16.7
2003-02-11 08:21:11 51°21.559 2°56.897 46.9 15.1 40.9 16.7
2003-02-11 08:21:16 51°21.575 2°56.92 47.2 15.1 41.1 16.6
2003-02-11 08:21:21 51°21.59 2°56.942 47.3 15.1 41.4 16.7
2003-02-11 08:21:26 51°21.606 2°56.964 47.1 15.1 41.5 16.6
2003-02-11 08:21:29 51°21.616 2°56.977 47.4 15.1 41.1 16.7
2003-02-11 08:21:37 51°21.641 2°57.013 47.5 15.1 41.1 16.7
2003-02-11 08:21:42 51°21.656 2°57.035 47.1 15.1 41.3 16.8
2003-02-11 08:21:46 51°21.669 2°57.052 47.4 15.1 41.5 16.7
2003-02-11 08:21:50 51°21.681 2°57.07 47.6 15.1 41.8 16.8
2003-02-11 08:21:56 51°21.7 2°57.096 47.4 15.1 41.3 16.9
2003-02-11 08:22:00 51°21.713 2°57.114 46.9 15.1 41.4 16.8
2003-02-11 08:22:05 51°21.729 2°57.136 46.8 15 40.9 17.1
2003-02-11 08:22:11 51°21.747 2°57.162 47.1 15 40.9 17
2003-02-11 08:22:16 51°21.763 2°57.184 47.1 15 41.1 17
2003-02-11 08:22:20 51°21.775 2°57.202 47.3 15.1 41.4 17.1
2003-02-11 08:22:26 51°21.794 2°57.229 47.4 15.1 41.5 17.1
2003-02-11 08:22:32 51°21.813 2°57.255 47.6 15 41.8 17.1
2003-02-11 08:22:36 51°21.825 2°57.273 48 15 41.9 17.2
2003-02-11 08:22:41 51°21.84 2°57.296 48.9 15.1 42.1 17.3
2003-02-11 08:22:47 51°21.859 2°57.323 49 15.1 42.8 17.2
2003-02-11 08:22:50 51°21.868 2°57.337 49.9 15 43.5 17.2
2003-02-11 08:22:56 51°21.885 2°57.365 50.1 15.1 43.9 17.1
2003-02-11 08:23:00 51°21.897 2°57.384 50.3 15.1 43.9 17.2
2003-02-11 08:23:07 51°21.919 2°57.416 50.5 15.1 43.9 17.2
2003-02-11 08:23:12 51°21.934 2°57.44 50.5 15.1 43.9 17.2
2003-02-11 08:23:16 51°21.946 2°57.458 50.3 15.1 44.1 17.2
2003-02-11 08:23:19 51°21.955 2°57.472 51.2 15.1 44.2 17.2
2003-02-11 08:23:27 51°21.978 2°57.51 51.5 15.2 45 17.3
2003-02-11 08:23:31 51°21.99 2°57.53 51.8 15.2 45 17.5
2003-02-11 08:23:37 51°22.008 2°57.559 52.3 15.2 45.5 17.6
2003-02-11 08:23:40 51°22.017 2°57.573 52.2 15.2 45.8 17.5
2003-02-11 08:23:45 51°22.032 2°57.597 51.6 15.2 45.7 17.8
2003-02-11 08:23:50 51°22.047 2°57.621 52.1 15.2 45.4 17.7
2003-02-11 08:23:56 51°22.064 2°57.65 52.5 15.2 45.9 17.7
2003-02-11 08:23:59 51°22.073 2°57.665 52.8 15.2 46.2 17.7
2003-02-11 08:24:05 51°22.091 2°57.694 52.5 15.2 46.2 17.7
2003-02-11 08:24:12 51°22.111 2°57.728 52.4 15.2 45.9 17.8
2003-02-11 08:24:17 51°22.125 2°57.752 52.9 15.2 46.2 17.8
2003-02-11 08:24:22 51°22.14 2°57.776 52.3 15.2 46.1 17.8
2003-02-11 08:24:26 51°22.152 2°57.795 52 15.2 45.5 17.8
2003-02-11 08:24:30 51°22.163 2°57.815 52.6 15.2 45.9 17.9
2003-02-11 08:24:36 51°22.181 2°57.844 52.9 15.2 46.5 17.9
2003-02-11 08:24:41 51°22.196 2°57.869 52.9 15.2 46.5 17.9
2003-02-11 08:24:46 51°22.21 2°57.893 52.7 15.2 46.5 17.9
2003-02-11 08:24:51 51°22.225 2°57.917 52.5 15.3 46.1 17.9
2003-02-11 08:24:56 51°22.24 2°57.942 52.6 15.3 46.2 17.9
2003-02-11 08:25:01 51°22.255 2°57.966 52.1 15.3 45.8 18
2003-02-11 08:25:05 51°22.266 2°57.986 52.7 15.3 46.1 17.9
2003-02-11 08:25:11 51°22.283 2°58.015 52.8 15.3 46.2 18
2003-02-11 08:25:16 51°22.298 2°58.04 52.5 15.3 46.3 18
2003-02-11 08:25:21 51°22.313 2°58.064 52.7 15.3 46.3 18.1
2003-02-11 08:25:27 51°22.33 2°58.093 52.8 15.2 46.5 18
2003-02-11 08:25:30 51°22.339 2°58.108 52.5 15.2 46.5 18
2003-02-11 08:25:36 51°22.357 2°58.137 51.8 15.2 45.8 18.1
2003-02-11 08:25:41 51°22.372 2°58.161 52.4 15.2 45.6 18.1
2003-02-11 08:25:47 51°22.389 2°58.19 52.6 15.2 46 18.2
2003-02-11 08:25:50 51°22.398 2°58.205 52.4 15.3 46.2 18.1
2003-02-11 08:25:56 51°22.416 2°58.234 52.4 15.2 45.9 18.1
2003-02-11 08:26:01 51°22.43 2°58.259 52.6 15.2 46.4 18.2
2003-02-11 08:26:06 51°22.445 2°58.282 52.1 15.2 46.2 18.2
2003-02-11 08:26:11 51°22.459 2°58.307 52.7 15.2 45.7 18.1
2003-02-11 08:26:16 51°22.474 2°58.331 52.2 15.2 45.8 18.1
2003-02-11 08:26:22 51°22.491 2°58.36 52.5 15.2 45.8 18.2
2003-02-11 08:26:27 51°22.506 2°58.385 53 15.2 46.7 18.3
2003-02-11 08:26:31 51°22.517 2°58.404 52.5 15.2 46.7 18.2
2003-02-11 08:26:36 51°22.532 2°58.429 52.8 15.2 46.1 18.2
2003-02-11 08:26:40 51°22.544 2°58.448 52.4 15.2 46.1 18.2
2003-02-11 08:26:46 51°22.561 2°58.477 51.9 15.2 45.9 18.2
2003-02-11 08:26:52 51°22.579 2°58.506 52.1 15.2 45.8 18.3
2003-02-11 08:26:56 51°22.591 2°58.525 53.2 15.2 46 18.3
2003-02-11 08:26:59 51°22.599 2°58.541 54.6 15.1 47.6 18.4
2003-02-11 08:27:06 51°22.619 2°58.575 55 15.2 48.2 18.4
2003-02-11 08:27:09 51°22.627 2°58.591 55.8 15.2 49 18.3
2003-02-11 08:27:16 51°22.646 2°58.627 56 15.2 49.3 18.3
2003-02-11 08:27:21 51°22.659 2°58.653 56 15.2 49.5 18.4
2003-02-11 08:27:27 51°22.676 2°58.683 55.8 15.2 49.1 18.4
2003-02-11 08:27:31 51°22.687 2°58.704 55.9 15.2 49.2 18.5
2003-02-11 08:27:41 51°22.714 2°58.754 56.1 15.2 49.3 18.4
2003-02-11 08:27:47 51°22.731 2°58.785 55.8 15.2 49.5 18.5
2003-02-11 08:27:50 51°22.739 2°58.8 55.4 15.2 49.4 18.5
2003-02-11 08:27:56 51°22.756 2°58.831 55.5 15.2 48.9 18.5
2003-02-11 08:28:00 51°22.767 2°58.851 55.9 15.2 49 18.6
2003-02-11 08:28:07 51°22.786 2°58.887 55.9 15.2 49.5 18.5
2003-02-11 08:28:10 51°22.794 2°58.902 55.7 15.2 49.3 18.5
2003-02-11 08:28:16 51°22.811 2°58.933 55.8 15.2 49.3 18.6
2003-02-11 08:28:21 51°22.825 2°58.958 55.6 15.2 49.3 18.6
2003-02-11 08:28:25 51°22.836 2°58.978 55.6 15.2 48.9 18.5
2003-02-11 08:28:32 51°22.855 2°59.014 56 15.2 48.9 18.5
2003-02-11 08:28:37 51°22.869 2°59.04 56.3 15.2 49.6 18.6
2003-02-11 08:28:40 51°22.877 2°59.056 56.3 15.2 49.8 18.5
2003-02-11 08:28:47 51°22.896 2°59.091 55.8 15.2 49.6 18.5
2003-02-11 08:28:51 51°22.907 2°59.112 55.6 15.2 49.3 18.6
2003-02-11 08:28:56 51°22.921 2°59.137 55.3 15.2 49.3 18.5
2003-02-11 08:29:00 51°22.932 2°59.158 55.7 15.2 49.1 18.5
2003-02-11 08:29:06 51°22.949 2°59.188 55.8 15.2 49.4 18.5
2003-02-11 08:29:12 51°22.965 2°59.219 55.8 15.2 49.4 18.6
2003-02-11 08:29:16 51°22.976 2°59.239 55.4 15.2 49.1 18.6
2003-02-11 08:29:20 51°22.987 2°59.26 55.3 15.3 49.1 18.6
2003-02-11 08:29:27 51°23.007 2°59.295 55.5 15.3 49.1 18.6
2003-02-11 08:29:31 51°23.017 2°59.316 55.8 15.3 49.1 18.7
2003-02-11 08:29:35 51°23.028 2°59.337 55.8 15.2 49.3 18.6
2003-02-11 08:29:42 51°23.048 2°59.372 55.3 15.2 49.3 18.6
2003-02-11 08:29:45 51°23.056 2°59.387 55.2 15.2 49.3 18.6
2003-02-11 08:29:51 51°23.073 2°59.418 55.5 15.2 49.3 18.7
2003-02-11 08:29:56 51°23.086 2°59.444 55.5 15.2 49.2 18.6
2003-02-11 08:30:00 51°23.097 2°59.464 55.7 15.2 49.1 18.6
2003-02-11 08:30:07 51°23.117 2°59.5 55.3 15.2 49.6 18.6
2003-02-11 08:30:12 51°23.131 2°59.525 55 15.2 49.4 18.7
2003-02-11 08:30:16 51°23.142 2°59.546 55.2 15.2 49.3 18.8
2003-02-11 08:30:20 51°23.152 2°59.566 55.7 15.2 49.3 18.9
2003-02-11 08:30:27 51°23.171 2°59.6 55.7 14.7 49.7 19
2003-02-11 08:30:31 51°23.181 2°59.619 55.8 14.5 49.5 18.9
2003-02-11 08:30:36 51°23.192 2°59.642 56.2 14.5 49.5 19.1
2003-02-11 08:30:42 51°23.207 2°59.668 55.8 13.4 49.6 19.1
2003-02-11 08:30:46 51°23.216 2°59.685 55.4 13.1 49.4 19.2
2003-02-11 08:30:51 51°23.228 2°59.706 52.3 12.7 47.7 19.3
2003-02-11 08:30:57 51°23.243 2°59.728 49 12.5 44.9 19.5
2003-02-11 08:31:00 51°23.251 2°59.739 46.7 12.4 43.3 19.4
2003-02-11 08:31:05 51°23.264 2°59.757 44.7 12.3 41.2 19.5
2003-02-11 08:31:12 51°23.282 2°59.78 42.8 12.2 39.4 19.5
2003-02-11 08:31:16 51°23.293 2°59.792 41.5 12.1 37.2 19.6
2003-02-11 08:31:22 51°23.309 2°59.811 40.4 12.1 37.1 19.5
2003-02-11 08:31:27 51°23.322 2°59.827 40.1 11.9 35.8 19.6
2003-02-11 08:31:31 51°23.333 2°59.839 41.3 11.7 36.4 19.6
2003-02-11 08:31:36 51°23.344 2°59.856 45.8 11.6 36.9 19.5
2003-02-11 08:31:40 51°23.352 2°59.87 56.8 11.2 43.1 19.5
2003-02-11 08:31:46 51°23.361 2°59.893 66.8 10.8 49.3 19.5
2003-02-11 08:31:51 51°23.366 2°59.913 76.2 10.2 58.3 19.5
2003-02-11 08:31:56 51°23.369 2°59.932 85.7 9.3 71.1 19.6
2003-02-11 08:32:01 51°23.37 2°59.951 94.7 9.3 71.1 19.6
2003-02-11 08:32:04 51°23.37 2°59.961 103.1 9.3 71.1 19.6
2003-02-11 08:32:08 51°23.37 2°59.974 110.2 7.5 91.8 19.6
2003-02-11 08:32:16 51°23.367 2°59.998 116.8 6.9 97.5 19.6
2003-02-11 08:32:20 51°23.366 3°0.009 123.2 6.3 103.6 19.6
2003-02-11 08:32:26 51°23.362 3°0.023 129.5 6.2 104.7 19.5
2003-02-11 08:32:31 51°23.359 3°0.033 135.8 6.2 104.7 19.5
2003-02-11 08:32:37 51°23.355 3°0.044 140.8 5.2 116 19.4
2003-02-11 08:32:41 51°23.352 3°0.051 148 5.2 116 19.4
2003-02-11 08:32:47 51°23.347 3°0.059 153.9 4.4 128.4 19.3
2003-02-11 08:32:50 51°23.344 3°0.063 158.8 4.1 135.1 19.2
2003-02-11 08:32:56 51°23.34 3°0.069 166.4 3.8 140 19.1
2003-02-11 08:33:01 51°23.335 3°0.072 172.7 3.7 143.7 19.1
2003-02-11 08:33:06 51°23.331 3°0.075 178.8 3.5 149.1 19
2003-02-11 08:33:11 51°23.328 3°0.077 185.2 3.1 159.2 19
2003-02-11 08:33:16 51°23.324 3°0.078 191.6 3 162 18.9
2003-02-11 08:33:21 51°23.32 3°0.078 198.1 3 162 19.1
2003-02-11 08:33:24 51°23.318 3°0.077 204.6 2.5 185.1 19
2003-02-11 08:33:31 51°23.314 3°0.075 211.2 2.5 185.1 18.9
2003-02-11 08:33:36 51°23.311 3°0.072 216 2.4 203.1 18.9
2003-02-11 08:33:42 51°23.308 3°0.068 220.8 2.4 209.9 19
2003-02-11 08:33:44 51°23.307 3°0.067 223.4 2.5 214.3 18.9
2003-02-11 08:33:52 51°23.303 3°0.061 225.3 2.5 221.8 18.9
2003-02-11 08:33:57 51°23.3 3°0.057 226.2 2.4 225.7 18.9
2003-02-11 08:34:01 51°23.299 3°0.054 227 2.4 226.9 18.9
2003-02-11 08:34:05 51°23.297 3°0.051 227.1 2.4 229.8 18.8
2003-02-11 08:34:09 51°23.295 3°0.047 226.6 2.4 229.5 18.8
2003-02-11 08:34:16 51°23.293 3°0.042 226 2.4 229.5 18.8
2003-02-11 08:34:20 51°23.291 3°0.039 225.1 2.3 228.3 18.7
2003-02-11 08:34:26 51°23.288 3°0.035 224.1 2.3 228.3 18.8
2003-02-11 08:34:31 51°23.286 3°0.032 223 2.3 228.3 18.8
2003-02-11 08:34:36 51°23.284 3°0.028 221.9 2.1 225 18.9
2003-02-11 08:34:42 51°23.282 3°0.025 221.1 2 224.4 18.9
2003-02-11 08:34:46 51°23.28 3°0.023 220 1.9 223.7 18.8
2003-02-11 08:34:50 51°23.279 3°0.021 219.1 1.8 221.9 18.8
2003-02-11 08:34:56 51°23.277 3°0.018 218.4 1.7 221.3 18.8
2003-02-11 08:35:01 51°23.275 3°0.015 217.6 1.7 220.4 18.8
2003-02-11 08:35:06 51°23.273 3°0.013 216.6 1.7 220.4 18.7
2003-02-11 08:35:12 51°23.271 3°0.011 215.9 1.5 218.1 18.8
2003-02-11 08:35:16 51°23.27 3°0.01 215 1.5 215.7 18.8
2003-02-11 08:35:20 51°23.269 3°0.008 214.1 1.4 214.3 18.8
2003-02-11 08:35:25 51°23.267 3°0.007 213.1 1.3 212.1 18.8
2003-02-11 08:35:32 51°23.265 3°0.005 212.2 1.3 211.2 18.7
2003-02-11 08:35:36 51°23.264 3°0.003 211.6 1.3 211.2 18.8
2003-02-11 08:35:40 51°23.263 3°0.003 211 1.2 210.8 18.8
2003-02-11 08:35:46 51°23.262 3°0.001 210.6 1.1 210.6 18.9
2003-02-11 08:35:51 51°23.26 2°60 211.1 1.1 210.6 18.8
2003-02-11 08:35:56 51°23.259 2°59.999 211.7 1 211.3 18.8
2003-02-11 08:36:00 51°23.258 2°59.998 212.5 1 212.4 18.8
2003-02-11 08:36:07 51°23.257 2°59.996 213.6 0.9 213 18.8
2003-02-11 08:36:10 51°23.256 2°59.996 215 0.9 216.2 18.8
2003-02-11 08:36:17 51°23.255 2°59.994 216.1 0.9 218 18.8
2003-02-11 08:36:20 51°23.254 2°59.993 217.7 0.9 222.5 18.9
2003-02-11 08:36:25 51°23.254 2°59.992 218.8 0.8 226.4 18.8
2003-02-11 08:36:32 51°23.253 2°59.99 220.2 0.8 226.4 18.8
2003-02-11 08:36:36 51°23.252 2°59.989 221.5 0.8 231.3 18.8
2003-02-11 08:36:39 51°23.252 2°59.988 223 0.8 234.2 18.7
2003-02-11 08:36:47 51°23.251 2°59.985 224 0.8 238.4 18.8
2003-02-11 08:36:51 51°23.25 2°59.984 225.3 0.8 242.3 18.9
2003-02-11 08:36:56 51°23.25 2°59.982 226.6 0.8 245.8 18.9
2003-02-11 08:37:00 51°23.25 2°59.981 228 0.8 247.6 18.8
2003-02-11 08:37:07 51°23.249 2°59.979 229.3 0.8 252.1 18.8
2003-02-11 08:37:12 51°23.249 2°59.977 230.9 0.8 255.5 18.8
2003-02-11 08:37:15 51°23.249 2°59.976 232 0.8 259.5 18.8
2003-02-11 08:37:22 51°23.249 2°59.973 233.4 0.9 262.7 18.8
2003-02-11 08:37:26 51°23.249 2°59.971 234.7 0.9 263.4 18.8
2003-02-11 08:37:31 51°23.249 2°59.969 236.2 0.9 266.9 18.9
2003-02-11 08:37:36 51°23.249 2°59.967 237 0.9 266.9 18.9
2003-02-11 08:37:41 51°23.249 2°59.965 238.1 0.9 271.8 18.8
2003-02-11 08:37:47 51°23.249 2°59.963 239.1 0.9 274.2 18.9
2003-02-11 08:37:52 51°23.249 2°59.961 240.2 1 275.8 18.8
2003-02-11 08:37:56 51°23.249 2°59.959 241.2 1 277.8 18.9
2003-02-11 08:38:01 51°23.249 2°59.957 242.3 1 278.7 18.9
2003-02-11 08:38:05 51°23.25 2°59.955 243.1 1 282.2 18.9
2003-02-11 08:38:10 51°23.25 2°59.953 244.1 1 284 18.9
2003-02-11 08:38:17 51°23.25 2°59.95 244.9 1 285.1 18.9
2003-02-11 08:38:19 51°23.251 2°59.949 246.2 1.1 287.3 18.9
2003-02-11 08:38:25 51°23.251 2°59.946 247.1 1.1 287.7 18.8
2003-02-11 08:38:31 51°23.252 2°59.943 248.2 1.1 289 18.8
2003-02-11 08:38:36 51°23.253 2°59.941 249.1 1.1 289 18.8
2003-02-11 08:38:40 51°23.253 2°59.939 250.2 1.1 292.2 18.8
2003-02-11 08:38:47 51°23.254 2°59.936 251.2 1.2 294 18.7
2003-02-11 08:38:50 51°23.254 2°59.934 251.8 1.2 295.3 18.9
2003-02-11 08:38:56 51°23.255 2°59.931 252 1.2 295.5 18.9
2003-02-11 08:39:01 51°23.256 2°59.929 251.8 1.2 295.5 18.9
2003-02-11 08:39:06 51°23.257 2°59.927 251.4 1.2 295.4 18.9
2003-02-11 08:39:12 51°23.258 2°59.924 250.7 1.2 294.8 18.9
2003-02-11 08:39:16 51°23.258 2°59.922 250 1.2 294.8 18.9
2003-02-11 08:39:20 51°23.259 2°59.92 249 1.2 294.7 18.9
2003-02-11 08:39:25 51°23.259 2°59.917 248.1 1.1 295.1 19
2003-02-11 08:39:32 51°23.26 2°59.914 247.1 1.1 295.1 18.9
2003-02-11 08:39:36 51°23.261 2°59.912 246.3 1.1 295.8 19
2003-02-11 08:39:39 51°23.261 2°59.911 245.6 1.1 295.8 19
2003-02-11 08:39:47 51°23.262 2°59.908 244.7 1.1 295.8 18.9
2003-02-11 08:39:52 51°23.263 2°59.906 243.8 1 295.2 19
2003-02-11 08:39:56 51°23.263 2°59.904 242.7 1 293.4 19
2003-02-11 08:40:00 51°23.264 2°59.903 241.3 1 294.3 19.1
2003-02-11 08:40:07 51°23.264 2°59.9 240.2 0.9 293 19
2003-02-11 08:40:12 51°23.265 2°59.898 239.2 0.9 293 19.1
2003-02-11 08:40:16 51°23.265 2°59.897 237.8 0.8 291.3 19.1
2003-02-11 08:40:19 51°23.265 2°59.896 236.4 0.8 291.3 19.1
2003-02-11 08:40:27 51°23.266 2°59.894 234.7 0.7 290 19
2003-02-11 08:40:31 51°23.266 2°59.893 233.2 0.7 290.1 19.1
2003-02-11 08:40:35 51°23.266 2°59.892 231.8 0.6 290.4 19.1
2003-02-11 08:40:39 51°23.266 2°59.891 230.3 0.6 287.6 19.1
2003-02-11 08:40:46 51°23.267 2°59.889 229 0.6 288 19.1
2003-02-11 08:40:51 51°23.267 2°59.889 227.4 0.5 290.4 19.1
2003-02-11 08:40:57 51°23.267 2°59.887 226.4 0.5 290.2 19.1
2003-02-11 08:41:00 51°23.267 2°59.887 225.1 0.5 290.1 19.1
2003-02-11 08:41:05 51°23.267 2°59.886 223.7 0.5 290.1 19.1
2003-02-11 08:41:09 51°23.268 2°59.885 222.6 0.4 293 19.2
2003-02-11 08:41:16 51°23.268 2°59.884 221.5 0.4 293.6 19.1
2003-02-11 08:41:20 51°23.268 2°59.884 220.6 0.4 294.9 19.1
2003-02-11 08:41:26 51°23.268 2°59.883 219.6 0.3 297.8 19.1
2003-02-11 08:41:30 51°23.268 2°59.883 218.6 0.3 299.8 19.1
2003-02-11 08:41:36 51°23.269 2°59.882 217.7 0.3 299.8 19.1
2003-02-11 08:41:42 51°23.269 2°59.882 216.7 0.3 299.8 19.1
2003-02-11 08:41:47 51°23.269 2°59.881 215.8 0.3 299.8 19.1
2003-02-11 08:41:50 51°23.269 2°59.881 214.7 0.2 307.9 19.2
2003-02-11 08:41:56 51°23.269 2°59.88 213.5 0.2 309.6 19.1
2003-02-11 08:42:01 51°23.269 2°59.88 212.2 0.2 311.5 19.1
2003-02-11 08:42:05 51°23.27 2°59.88 211 0.2 314.3 19.1
2003-02-11 08:42:12 51°23.27 2°59.88 209.4 0.1 331.4 19.1
2003-02-11 08:42:16 51°23.27 2°59.88 208.1 0.1 343 19.2
2003-02-11 08:42:21 51°23.27 2°59.88 206.7 0.1 4.1 19.1
2003-02-11 08:42:27 51°23.27 2°59.88 205.4 0.1 2.3 19.1
2003-02-11 08:42:31 51°23.27 2°59.88 204.1 0.1 13.5 19.1
2003-02-11 08:42:37 51°23.27 2°59.88 203.1 0.1 13.5 19.1
2003-02-11 08:42:39 51°23.27 2°59.88 201.8 0.1 51.2 19.1
2003-02-11 08:42:45 51°23.27 2°59.881 200.7 0.1 48 19.1
2003-02-11 08:42:51 51°23.27 2°59.881 199.5 0.1 64.4 19.1
2003-02-11 08:42:56 51°23.27 2°59.882 198.4 0.1 64.6 19.1
2003-02-11 08:43:00 51°23.27 2°59.882 197.3 0.2 73.8 19.1
2003-02-11 08:43:06 51°23.271 2°59.882 196 0.2 71.8 19.1
2003-02-11 08:43:11 51°23.271 2°59.883 195 0.2 80.5 19.1
2003-02-11 08:43:16 51°23.271 2°59.883 194 0.3 83.6 19.1
2003-02-11 08:43:21 51°23.271 2°59.884 192.8 0.3 83.3 19.2
2003-02-11 08:43:25 51°23.271 2°59.885 192 0.4 89 19.2
2003-02-11 08:43:32 51°23.271 2°59.886 190.8 0.4 91 19.1
2003-02-11 08:43:36 51°23.271 2°59.886 189.7 0.4 84.6 19.1
2003-02-11 08:43:42 51°23.271 2°59.887 188.7 0.4 84.2 19.2
2003-02-11 08:43:47 51°23.271 2°59.888 187.8 0.4 81.9 19.1
2003-02-11 08:43:51 51°23.271 2°59.889 186.8 0.4 79.4 19.1
2003-02-11 08:43:56 51°23.271 2°59.89 185.9 0.4 79.3 19.1
2003-02-11 08:44:00 51°23.272 2°59.89 185 0.4 78.3 19.1
2003-02-11 08:44:07 51°23.272 2°59.892 184.2 0.5 77.5 19.1
2003-02-11 08:44:12 51°23.272 2°59.893 183 0.5 77.5 19.1
2003-02-11 08:44:16 51°23.272 2°59.894 182.1 0.5 80.7 19.1
2003-02-11 08:44:19 51°23.272 2°59.895 181 0.6 80.8 19
2003-02-11 08:44:27 51°23.272 2°59.897 180 0.6 79.4 19
2003-02-11 08:44:31 51°23.272 2°59.898 179 0.6 78.6 19.1
2003-02-11 08:44:36 51°23.273 2°59.899 177.9 0.6 79.4 19.1
2003-02-11 08:44:39 51°23.273 2°59.9 177.2 0.7 80.5 19.1
2003-02-11 08:44:46 51°23.273 2°59.902 176.2 0.7 79.9 19.1
2003-02-11 08:44:48 51°23.273 2°59.903 175.3 0.7 79.3 19
2003-02-11 08:44:56 51°23.273 2°59.905 174.4 0.7 79.6 19
2003-02-11 08:45:02 51°23.274 2°59.907 173.6 0.7 79 19
2003-02-11 08:45:06 51°23.274 2°59.908 172.7 0.7 78.6 19.1
2003-02-11 08:45:12 51°23.274 2°59.911 172 0.7 78.6 19
2003-02-11 08:45:16 51°23.274 2°59.912 171.2 0.8 77.4 19
2003-02-11 08:45:19 51°23.274 2°59.913 170.4 0.8 77 19
2003-02-11 08:45:25 51°23.274 2°59.915 169.7 0.8 77 19
2003-02-11 08:45:31 51°23.275 2°59.918 168.8 0.9 76.7 19
2003-02-11 08:45:36 51°23.275 2°59.919 167.9 0.9 76.7 18.9
2003-02-11 08:45:40 51°23.275 2°59.921 167.1 0.9 76.3 19.1
2003-02-11 08:45:47 51°23.276 2°59.924 166.2 0.9 75.6 19.1
2003-02-11 08:45:50 51°23.276 2°59.925 165.4 1 74.4 19
2003-02-11 08:45:56 51°23.277 2°59.928 164.5 1 73.9 19.1
2003-02-11 08:46:00 51°23.277 2°59.929 163.3 1 73.3 19
2003-02-11 08:46:05 51°23.277 2°59.931 162.2 1 73.3 19
2003-02-11 08:46:12 51°23.278 2°59.935 161.1 1 73.3 19
2003-02-11 08:46:16 51°23.279 2°59.936 159.8 1.1 72 19
2003-02-11 08:46:26 51°23.28 2°59.942 156.9 1.1 71.5 19
2003-02-11 08:46:32 51°23.28 2°59.944 155.6 1.2 71.6 19
2003-02-11 08:46:36 51°23.281 2°59.946 154 1.2 70.7 19.1
2003-02-11 08:46:39 51°23.281 2°59.948 152.4 1.2 70.6 19.1
2003-02-11 08:46:47 51°23.282 2°59.952 150.4 1.2 70.4 19
2003-02-11 08:46:50 51°23.283 2°59.954 148.6 1.3 69.4 19
2003-02-11 08:46:56 51°23.283 2°59.957 146.5 1.3 69.1 19
2003-02-11 08:47:00 51°23.284 2°59.959 144.2 1.4 68.5 19
2003-02-11 08:47:05 51°23.285 2°59.962 141.8 1.4 68.5 19
2003-02-11 08:47:12 51°23.286 2°59.966 139.5 1.5 67.4 18.9
2003-02-11 08:47:16 51°23.286 2°59.969 137.1 1.5 66.7 18.9
2003-02-11 08:47:21 51°23.287 2°59.972 135 1.5 66.3 18.9
2003-02-11 08:47:27 51°23.288 2°59.976 133.3 1.5 66.4 18.9
2003-02-11 08:47:32 51°23.289 2°59.979 132.1 1.6 65.6 18.9
2003-02-11 08:47:36 51°23.29 2°59.982 131.7 1.6 64.4 18.9
2003-02-11 08:47:40 51°23.291 2°59.984 131.3 1.6 64.8 18.9
2003-02-11 08:47:46 51°23.292 2°59.989 131.3 1.6 64.8 19
2003-02-11 08:47:51 51°23.293 2°59.992 131.3 1.6 64.8 18.9
2003-02-11 08:47:56 51°23.294 2°59.996 131.4 1.7 64.4 18.8
2003-02-11 08:48:01 51°23.295 2°59.999 131.7 1.7 64.4 18.9
2003-02-11 08:48:05 51°23.296 3°0.002 132.1 1.7 63.8 18.9
2003-02-11 08:48:10 51°23.297 3°0.005 132.6 1.7 64 18.9
2003-02-11 08:48:16 51°23.298 3°0.009 133.4 1.7 64 18.9
2003-02-11 08:48:20 51°23.299 3°0.012 134.2 1.7 64.1 18.9
2003-02-11 08:48:27 51°23.3 3°0.016 134.8 1.7 64.5 19
2003-02-11 08:48:31 51°23.301 3°0.019 135.8 1.7 64.7 18.9
2003-02-11 08:48:36 51°23.302 3°0.022 137 1.7 64.7 18.8
2003-02-11 08:48:42 51°23.303 3°0.026 138.1 1.6 66.6 18.9
2003-02-11 08:48:47 51°23.304 3°0.03 139.4 1.6 66.6 18.8
2003-02-11 08:48:51 51°23.304 3°0.032 140.9 1.6 67.2 18.8
2003-02-11 08:48:56 51°23.305 3°0.035 142.4 1.5 68.7 18.9
2003-02-11 08:49:02 51°23.306 3°0.039 144.2 1.5 68.7 18.8
2003-02-11 08:49:07 51°23.307 3°0.042 145.6 1.5 70.4 18.8
2003-02-11 08:49:11 51°23.307 3°0.044 148 1.4 70.4 18.8
2003-02-11 08:49:16 51°23.308 3°0.047 150.1 1.4 71 18.8
2003-02-11 08:49:20 51°23.308 3°0.049 152.4 1.3 71.7 18.8
2003-02-11 08:49:27 51°23.309 3°0.053 154.2 1.3 71.7 18.8
2003-02-11 08:49:32 51°23.31 3°0.055 157.1 1.2 71.8 18.8
2003-02-11 08:49:37 51°23.31 3°0.058 158.9 1.2 71.4 18.8
2003-02-11 08:49:42 51°23.31 3°0.06 162 1.2 71.4 18.9
2003-02-11 08:49:47 51°23.311 3°0.063 164.5 1.1 72.6 18.8
2003-02-11 08:49:52 51°23.311 3°0.065 166.9 1.1 72.2 18.8
2003-02-11 08:49:56 51°23.312 3°0.066 169.7 1 71.2 18.8
2003-02-11 08:49:59 51°23.312 3°0.068 172.1 1 71 18.9
2003-02-11 08:50:07 51°23.313 3°0.071 174.5 1 71.4 18.9
2003-02-11 08:50:12 51°23.313 3°0.072 176.8 0.9 70.6 18.8
2003-02-11 08:50:16 51°23.313 3°0.074 179 0.9 70.6 18.8
2003-02-11 08:50:20 51°23.314 3°0.075 181.4 0.8 69.6 18.8
2003-02-11 08:50:27 51°23.314 3°0.077 183.6 0.7 69.7 18.8
2003-02-11 08:50:32 51°23.315 3°0.078 185.8 0.7 68.1 18.8
2003-02-11 08:50:36 51°23.315 3°0.08 188.1 0.6 68.1 18.7
2003-02-11 08:50:42 51°23.315 3°0.081 190.2 0.6 66.9 18.8
2003-02-11 08:50:46 51°23.315 3°0.082 192.1 0.6 66.9 18.8
2003-02-11 08:50:56 51°23.316 3°0.083 195 0.4 61 18.9
2003-02-11 08:51:01 51°23.316 3°0.084 196 0.4 64.8 18.8
2003-02-11 08:51:07 51°23.316 3°0.085 196.8 0.4 63.8 18.9
2003-02-11 08:51:12 51°23.316 3°0.086 198 0.4 63.6 18.9
2003-02-11 08:51:16 51°23.317 3°0.086 198.7 0.3 63.4 18.9
2003-02-11 08:51:21 51°23.317 3°0.086 199.4 0.3 66.2 18.9
2003-02-11 08:51:26 51°23.317 3°0.087 200 0.3 67.4 18.8
2003-02-11 08:51:32 51°23.317 3°0.087 200.8 0.2 59.1 18.9
2003-02-11 08:51:36 51°23.317 3°0.088 201.1 0.2 61.1 18.8
2003-02-11 08:51:42 51°23.318 3°0.088 201.5 0.2 60.8 18.9
2003-02-11 08:51:47 51°23.318 3°0.088 201.7 0.2 71.5 18.9
2003-02-11 08:51:50 51°23.318 3°0.088 202.1 0.1 71.8 18.9
2003-02-11 08:51:56 51°23.318 3°0.089 202.5 0.1 72.8 18.9
2003-02-11 08:52:01 51°23.318 3°0.089 202.7 0.1 65.8 18.9
2003-02-11 08:52:05 51°23.318 3°0.089 202.9 0.1 53.8 18.9
2003-02-11 08:52:12 51°23.318 3°0.089 203   53.5 18.9
2003-02-11 08:52:16 51°23.318 3°0.089 203.1   64.5 18.9
2003-02-11 08:52:20 51°23.318 3°0.089 203.1   106.3 18.9
2003-02-11 08:52:27 51°23.318 3°0.089 203.1   143.5 18.9
2003-02-11 08:52:32 51°23.318 3°0.089 203   171.4 18.8
2003-02-11 08:52:36 51°23.318 3°0.089 202.9   176.7 18.9
2003-02-11 08:52:41 51°23.318 3°0.089 202.6 0.1 161.3 18.8
2003-02-11 08:52:45 51°23.318 3°0.089 202.4 0.1 161.3 18.9
2003-02-11 08:52:48 51°23.318 3°0.089 202 0.1 167.4 18.9
2003-02-11 08:52:56 51°23.317 3°0.089 201.6 0.1 169.4 18.9
2003-02-11 08:53:02 51°23.317 3°0.09 201.2 0.1 175 18.9
2003-02-11 08:53:07 51°23.317 3°0.089 201 0.1 178.8 18.9
2003-02-11 08:53:10 51°23.317 3°0.089 200.4 0.2 186.8 18.8
2003-02-11 08:53:16 51°23.317 3°0.089 200.1 0.2 183.9 18.9
2003-02-11 08:53:21 51°23.316 3°0.089 199.7 0.2 183.1 18.9
2003-02-11 08:53:25 51°23.316 3°0.089 199.3 0.2 183.1 18.8
2003-02-11 08:53:32 51°23.316 3°0.089 198.7 0.2 177.9 18.9
2003-02-11 08:53:36 51°23.315 3°0.089 198.4 0.3 170 19
2003-02-11 08:53:42 51°23.315 3°0.089 197.7 0.3 168.3 18.8
2003-02-11 08:53:47 51°23.315 3°0.089 196.9 0.3 160.3 18.8
2003-02-11 08:53:52 51°23.314 3°0.09 196.1 0.3 161.2 18.8
2003-02-11 08:53:56 51°23.314 3°0.09 195.4 0.4 159.2 18.8
2003-02-11 08:54:00 51°23.314 3°0.09 194.5 0.4 160.3 18.7
2003-02-11 08:54:07 51°23.313 3°0.09 193.9 0.4 160.7 18.8
2003-02-11 08:54:12 51°23.312 3°0.09 193 0.4 160.7 18.8
2003-02-11 08:54:16 51°23.312 3°0.091 192.3 0.4 155.8 18.8
2003-02-11 08:54:19 51°23.312 3°0.091 191.4 0.4 155.8 18.7
2003-02-11 08:54:27 51°23.311 3°0.092 190.8 0.4 157 18.7
2003-02-11 08:54:31 51°23.31 3°0.092 190.1 0.4 156 18.8
2003-02-11 08:54:36 51°23.31 3°0.092 189.6 0.4 154.2 18.7
2003-02-11 08:54:42 51°23.309 3°0.093 188.8 0.4 153.5 18.7
2003-02-11 08:54:47 51°23.309 3°0.093 188.3 0.4 153.5 18.6
2003-02-11 08:54:50 51°23.309 3°0.093 188 0.5 148.4 18.7
2003-02-11 08:54:56 51°23.308 3°0.094 188.1 0.5 151.1 18.7
2003-02-11 08:55:01 51°23.307 3°0.095 188.4 0.5 152.4 18.7
2003-02-11 08:55:05 51°23.307 3°0.095 188.8 0.5 151.4 18.6
2003-02-11 08:55:09 51°23.307 3°0.095 189.3 0.5 149.9 18.7
2003-02-11 08:55:16 51°23.306 3°0.096 189.8 0.5 151.3 18.6
2003-02-11 08:55:22 51°23.305 3°0.096 190.5 0.5 155.4 18.6
2003-02-11 08:55:25 51°23.304 3°0.097 191 0.5 159.6 18.7
2003-02-11 08:55:31 51°23.304 3°0.097 192.2 0.5 159.6 18.6
2003-02-11 08:55:36 51°23.303 3°0.097 193.1 0.5 165.9 18.6
2003-02-11 08:55:42 51°23.302 3°0.097 194.5 0.5 170.3 18.7
2003-02-11 08:55:45 51°23.302 3°0.097 195.9 0.5 175.8 18.6
2003-02-11 08:55:49 51°23.301 3°0.098 197.8 0.5 180.3 18.5
2003-02-11 08:55:56 51°23.301 3°0.097 199.1 0.5 187 18.6
2003-02-11 08:56:01 51°23.3 3°0.097 201 0.5 188.1 18.5